createdAt,value
2023-03-21T00:01:55.401Z,99110.06
2023-03-21T00:04:25.389Z,99120.97
2023-03-21T00:06:54.156Z,99127.34
2023-03-21T00:09:23.240Z,99136.47
2023-03-21T00:11:51.653Z,99139.25
2023-03-21T00:14:21.053Z,99142.25
2023-03-21T00:16:54.001Z,99150.09
2023-03-21T00:19:22.895Z,99152.38
2023-03-21T00:22:06.597Z,99158.94
2023-03-21T00:24:37.048Z,99161.44
2023-03-21T00:27:33.747Z,99165.97
2023-03-21T00:29:53.879Z,99173.28
2023-03-21T00:32:23.324Z,99180.63
2023-03-21T00:35:18.466Z,99182.34
2023-03-21T00:37:41.628Z,99189.16
2023-03-21T00:40:23.159Z,99194.94
2023-03-21T00:42:53.954Z,99203.03
2023-03-21T00:45:23.361Z,99201.19
2023-03-21T00:47:51.991Z,99201.38
2023-03-21T00:50:20.899Z,99209.97
2023-03-21T00:52:49.265Z,99206.59
2023-03-21T00:55:20.304Z,99212.38
2023-03-21T00:57:56.138Z,99216.66
2023-03-21T01:00:29.885Z,99211.97
2023-03-21T01:03:11.145Z,99216.47
2023-03-21T01:06:04.755Z,99213.31
2023-03-21T01:08:50.455Z,99226.25
2023-03-21T01:11:21.631Z,99225.88
2023-03-21T01:14:20.937Z,99230.13
2023-03-21T01:16:38.524Z,99226.94
2023-03-21T01:19:14.875Z,99225.59
2023-03-21T01:21:50.737Z,99227.78
2023-03-21T01:24:19.139Z,99235.63
2023-03-21T01:26:47.782Z,99235.03
2023-03-21T01:29:16.341Z,99238.53
2023-03-21T01:31:44.965Z,99249.94
2023-03-21T01:34:13.366Z,99242.38
2023-03-21T01:36:41.764Z,99239.47
2023-03-21T01:39:10.228Z,99243.22
2023-03-21T01:41:44.289Z,99243.88
2023-03-21T01:44:18.175Z,99248.13
2023-03-21T01:49:48.792Z,99246.38
2023-03-21T01:52:35.253Z,99237.28
2023-03-21T01:55:08.357Z,99243.03
2023-03-21T01:57:51.925Z,99248.03
2023-03-21T02:00:26.737Z,99247.59
2023-03-21T02:03:11.305Z,99246.97
2023-03-21T02:06:04.096Z,99247.31
2023-03-21T02:08:39.680Z,99245.38
2023-03-21T02:11:11.074Z,99241.16
2023-03-21T02:13:39.637Z,99239.72
2023-03-21T02:16:19.951Z,99239.09
2023-03-21T02:19:13.996Z,99242.00
2023-03-21T02:22:05.237Z,99239.50
2023-03-21T02:24:46.269Z,99242.41
2023-03-21T02:27:25.297Z,99244.03
2023-03-21T02:29:59.293Z,99234.91
2023-03-21T02:32:42.585Z,99240.31
2023-03-21T02:35:41.499Z,99236.28
2023-03-21T02:38:20.314Z,99239.94
2023-03-21T02:41:03.358Z,99243.59
2023-03-21T02:43:56.211Z,99232.41
2023-03-21T02:46:43.914Z,99234.53
2023-03-21T02:49:57.579Z,99238.41
2023-03-21T02:52:39.558Z,99227.94
2023-03-21T02:55:28.097Z,99224.63
2023-03-21T02:58:07.002Z,99231.84
2023-03-21T03:00:41.557Z,99226.28
2023-03-21T03:03:12.738Z,99229.91
2023-03-21T03:05:58.268Z,99227.91
2023-03-21T03:09:01.417Z,99230.47
2023-03-21T03:11:35.460Z,99222.78
2023-03-21T03:14:40.102Z,99226.41
2023-03-21T03:17:46.644Z,99221.97
2023-03-21T03:20:34.346Z,99222.19
2023-03-21T03:23:24.135Z,99215.47
2023-03-21T03:26:05.908Z,99210.63
2023-03-21T03:28:40.146Z,99208.56
2023-03-21T03:31:13.550Z,99202.16
2023-03-21T03:33:47.856Z,99214.25
2023-03-21T03:36:31.149Z,99203.16
2023-03-21T03:39:02.315Z,99188.81
2023-03-21T03:41:50.268Z,99186.03
2023-03-21T03:44:19.384Z,99185.50
2023-03-21T03:47:11.889Z,99188.31
2023-03-21T03:49:53.237Z,99182.84
2023-03-21T03:52:24.187Z,99180.03
2023-03-21T03:54:53.969Z,99187.22
2023-03-21T03:57:23.151Z,99177.94
2023-03-21T03:59:51.547Z,99175.88
2023-03-21T04:02:21.264Z,99184.00
2023-03-21T04:04:53.988Z,99172.06
2023-03-21T04:07:26.171Z,99172.81
2023-03-21T04:09:54.600Z,99165.06
2023-03-21T04:12:23.052Z,99166.34
2023-03-21T04:14:53.322Z,99158.59
2023-03-21T04:17:23.393Z,99160.69
2023-03-21T04:19:57.759Z,99158.19
2023-03-21T04:22:34.347Z,99151.34
2023-03-21T04:25:02.781Z,99152.63
2023-03-21T04:27:31.393Z,99142.00
2023-03-21T04:30:00.179Z,99137.03
2023-03-21T04:32:29.701Z,99134.91
2023-03-21T04:34:58.234Z,99124.84
2023-03-21T04:37:26.904Z,99119.13
2023-03-21T04:39:55.609Z,99124.00
2023-03-21T04:42:24.129Z,99121.09
2023-03-21T04:44:52.681Z,99110.44
2023-03-21T04:47:21.345Z,99106.03
2023-03-21T04:49:49.758Z,99103.72
2023-03-21T04:52:18.290Z,99092.88
2023-03-21T04:54:47.185Z,99089.03
2023-03-21T04:57:15.849Z,99087.31
2023-03-21T04:59:44.347Z,99078.53
2023-03-21T05:02:13.408Z,99072.75
2023-03-21T05:04:41.818Z,99069.06
2023-03-21T05:07:10.433Z,99061.66
2023-03-21T05:09:39.481Z,99060.22
2023-03-21T05:12:08.113Z,99054.31
2023-03-21T05:14:36.591Z,99054.22
2023-03-21T05:17:06.170Z,99048.28
2023-03-21T05:19:37.385Z,99035.31
2023-03-21T05:22:07.910Z,99033.09
2023-03-21T05:24:40.178Z,99041.53
2023-03-21T05:27:09.542Z,99038.63
2023-03-21T05:29:40.044Z,99026.22
2023-03-21T05:32:08.407Z,99023.69
2023-03-21T05:34:36.766Z,99019.06
2023-03-21T05:37:05.124Z,99023.75
2023-03-21T05:39:33.761Z,99011.50
2023-03-21T05:42:02.116Z,99004.78
2023-03-21T05:44:30.507Z,98997.16
2023-03-21T05:46:58.847Z,98991.00
2023-03-21T05:49:28.057Z,98980.38
2023-03-21T05:51:56.654Z,98971.97
2023-03-21T05:54:25.083Z,98973.03
2023-03-21T05:56:53.576Z,98964.66
2023-03-21T05:59:21.974Z,98953.56
2023-03-21T06:01:50.333Z,98943.44
2023-03-21T06:04:18.746Z,98943.91
2023-03-21T06:06:47.157Z,98944.94
2023-03-21T06:09:15.524Z,98933.25
2023-03-21T06:11:48.510Z,98919.91
2023-03-21T06:14:17.536Z,98913.47
2023-03-21T06:16:46.308Z,98902.38
2023-03-21T06:19:15.064Z,98899.84
2023-03-21T06:21:44.015Z,98882.28
2023-03-21T06:24:12.439Z,98880.47
2023-03-21T06:26:40.848Z,98874.94
2023-03-21T06:29:09.224Z,98865.31
2023-03-21T06:31:37.870Z,98859.94
2023-03-21T06:34:06.330Z,98852.47
2023-03-21T06:36:38.653Z,98839.84
2023-03-21T06:39:09.197Z,98837.44
2023-03-21T06:41:38.617Z,98837.13
2023-03-21T06:44:07.350Z,98830.81
2023-03-21T06:46:35.704Z,98828.09
2023-03-21T06:49:04.153Z,98824.03
2023-03-21T06:51:32.668Z,98817.13
2023-03-21T06:54:01.446Z,98816.69
2023-03-21T06:56:29.828Z,98809.16
2023-03-21T06:58:58.248Z,98811.41
2023-03-21T07:01:28.515Z,98802.22
2023-03-21T07:03:58.413Z,98798.78
2023-03-21T07:06:27.503Z,98799.66
2023-03-21T07:08:57.300Z,98789.00
2023-03-21T07:11:26.891Z,98781.81
2023-03-21T07:13:55.586Z,98781.97
2023-03-21T07:16:25.813Z,98772.63
2023-03-21T07:18:54.325Z,98771.88
2023-03-21T07:21:22.694Z,98773.25
2023-03-21T07:23:51.313Z,98765.28
2023-03-21T07:26:19.914Z,98757.47
2023-03-21T07:28:48.338Z,98751.16
2023-03-21T07:31:18.249Z,98753.44
2023-03-21T07:33:47.194Z,98747.13
2023-03-21T07:36:16.918Z,98734.06
2023-03-21T07:38:46.788Z,98733.31
2023-03-21T07:43:48.400Z,98720.25
2023-03-21T07:46:17.153Z,98725.34
2023-03-21T07:48:45.478Z,98721.75
2023-03-21T07:51:13.897Z,98709.31
2023-03-21T07:53:49.349Z,98710.69
2023-03-21T07:56:17.756Z,98708.88
2023-03-21T07:58:46.254Z,98708.59
2023-03-21T08:01:14.637Z,98712.06
2023-03-21T08:03:44.250Z,98705.94
2023-03-21T08:06:12.697Z,98695.75
2023-03-21T08:08:41.242Z,98694.84
2023-03-21T08:11:10.028Z,98691.25
2023-03-21T08:13:38.394Z,98692.75
2023-03-21T08:16:08.078Z,98687.19
2023-03-21T08:18:36.496Z,98683.13
2023-03-21T08:21:05.031Z,98681.50
2023-03-21T08:23:33.535Z,98688.53
2023-03-21T08:26:02.469Z,98677.00
2023-03-21T08:28:30.989Z,98671.75
2023-03-21T08:30:59.372Z,98673.88
2023-03-21T08:33:28.395Z,98666.66
2023-03-21T08:36:00.117Z,98667.13
2023-03-21T08:38:32.546Z,98668.19
2023-03-21T08:41:02.066Z,98664.28
2023-03-21T08:43:31.198Z,98654.22
2023-03-21T08:45:59.632Z,98654.84
2023-03-21T08:48:28.090Z,98640.31
2023-03-21T08:50:56.457Z,98642.88
2023-03-21T08:53:24.796Z,98637.03
2023-03-21T08:55:53.153Z,98644.84
2023-03-21T08:58:21.943Z,98641.84
2023-03-21T09:00:50.273Z,98640.19
2023-03-21T09:03:18.647Z,98638.69
2023-03-21T09:05:47.482Z,98633.72
2023-03-21T09:08:15.938Z,98637.81
2023-03-21T09:10:44.267Z,98633.31
2023-03-21T09:13:12.568Z,98630.31
2023-03-21T09:15:41.242Z,98629.44
2023-03-21T09:18:16.885Z,98628.41
2023-03-21T09:20:48.204Z,98626.16
2023-03-21T09:23:17.517Z,98627.97
2023-03-21T09:25:48.787Z,98622.00
2023-03-21T09:28:17.443Z,98613.09
2023-03-21T09:30:46.224Z,98617.31
2023-03-21T09:33:20.214Z,98613.41
2023-03-21T09:35:50.748Z,98616.13
2023-03-21T09:38:20.350Z,98611.63
2023-03-21T09:40:57.321Z,98604.31
2023-03-21T09:43:50.689Z,98605.22
2023-03-21T09:46:50.564Z,98607.31
2023-03-21T09:49:26.438Z,98608.53
2023-03-21T09:51:57.515Z,98614.22
2023-03-21T09:54:37.048Z,98615.25
2023-03-21T09:57:44.261Z,98609.84
2023-03-21T10:00:21.838Z,98609.56
2023-03-21T10:02:56.928Z,98611.97
2023-03-21T10:05:28.634Z,98605.81
2023-03-21T10:08:27.056Z,98617.66
2023-03-21T10:11:02.253Z,98614.50
2023-03-21T10:13:44.553Z,98621.22
2023-03-21T10:16:18.628Z,98610.75
2023-03-21T10:18:47.794Z,98611.94
2023-03-21T10:21:51.232Z,98612.19
2023-03-21T10:24:27.045Z,98608.16
2023-03-21T10:26:57.230Z,98611.25
2023-03-21T10:29:31.724Z,98620.84
2023-03-21T10:32:00.677Z,98613.94
2023-03-21T10:34:43.520Z,98624.25
2023-03-21T10:37:14.313Z,98620.19
2023-03-21T10:39:46.514Z,98632.59
2023-03-21T10:42:24.744Z,98625.69
2023-03-21T10:44:55.720Z,98640.00
2023-03-21T10:47:31.960Z,98642.75
2023-03-21T10:50:09.052Z,98641.53
2023-03-21T10:52:42.929Z,98640.16
2023-03-21T10:55:17.239Z,98645.97
2023-03-21T10:57:48.222Z,98644.53
2023-03-21T11:00:23.885Z,98641.03
2023-03-21T11:02:54.957Z,98640.41
2023-03-21T11:05:44.795Z,98649.75
2023-03-21T11:08:20.881Z,98648.94
2023-03-21T11:11:13.277Z,98646.78
2023-03-21T11:13:44.856Z,98643.84
2023-03-21T11:16:24.262Z,98650.31
2023-03-21T11:18:54.033Z,98658.19
2023-03-21T11:21:23.166Z,98654.84
2023-03-21T11:23:53.783Z,98669.84
2023-03-21T11:26:37.507Z,98657.81
2023-03-21T11:29:35.113Z,98664.91
2023-03-21T11:32:13.091Z,98664.94
2023-03-21T11:34:54.117Z,98658.75
2023-03-21T11:37:33.251Z,98663.91
2023-03-21T11:40:16.519Z,98665.47
2023-03-21T11:42:47.628Z,98670.44
2023-03-21T11:45:28.494Z,98678.44
2023-03-21T11:47:59.592Z,98683.75
2023-03-21T11:51:11.262Z,98685.47
2023-03-21T11:53:51.868Z,98683.63
2023-03-21T11:56:29.111Z,98691.03
2023-03-21T11:59:23.313Z,98692.75
2023-03-21T12:02:05.212Z,98700.09
2023-03-21T12:04:43.500Z,98699.00
2023-03-21T12:07:37.600Z,98705.66
2023-03-21T12:10:30.783Z,98711.34
2023-03-21T12:13:25.597Z,98714.38
2023-03-21T12:16:19.800Z,98721.78
2023-03-21T12:19:14.258Z,98721.41
2023-03-21T12:22:07.884Z,98715.41
2023-03-21T12:24:47.106Z,98719.19
2023-03-21T12:27:18.044Z,98715.25
2023-03-21T12:30:13.800Z,98717.16
2023-03-21T12:33:18.386Z,98721.50
2023-03-21T12:35:46.972Z,98718.28
2023-03-21T12:38:27.128Z,98722.06
2023-03-21T12:41:18.422Z,98733.03
2023-03-21T12:44:05.280Z,98740.41
2023-03-21T12:46:58.087Z,98732.66
2023-03-21T12:49:33.793Z,98739.84
2023-03-21T12:52:27.941Z,98740.63
2023-03-21T12:55:15.847Z,98738.56
2023-03-21T12:58:07.503Z,98753.63
2023-03-21T13:00:52.612Z,98756.81
2023-03-21T13:03:30.607Z,98759.06
2023-03-21T13:06:10.262Z,98766.44
2023-03-21T13:08:53.933Z,98773.59
2023-03-21T13:11:25.863Z,98782.22
2023-03-21T13:14:21.487Z,98797.50
2023-03-21T13:17:02.696Z,98804.28
2023-03-21T13:19:55.552Z,98808.03
2023-03-21T13:22:30.634Z,98805.59
2023-03-21T13:25:17.972Z,98809.56
2023-03-21T13:28:05.794Z,98809.91
2023-03-21T13:30:34.763Z,98813.13
2023-03-21T13:33:12.842Z,98820.63
2023-03-21T13:35:44.641Z,98827.41
2023-03-21T13:38:17.998Z,98835.13
2023-03-21T13:40:50.484Z,98832.84
2023-03-21T13:43:56.873Z,98844.72
2023-03-21T13:46:28.227Z,98843.22
2023-03-21T13:48:59.779Z,98853.53
2023-03-21T13:51:51.972Z,98866.50
2023-03-21T13:54:22.814Z,98873.09
2023-03-21T13:57:42.945Z,98865.75
2023-03-21T14:00:22.871Z,98875.31
2023-03-21T14:03:01.993Z,98880.19
2023-03-21T14:05:31.048Z,98890.75
2023-03-21T14:08:15.293Z,98885.66
2023-03-21T14:10:55.689Z,98898.81
2023-03-21T14:13:28.570Z,98901.44
2023-03-21T14:16:15.601Z,98908.22
2023-03-21T14:19:00.768Z,98905.94
2023-03-21T14:21:32.116Z,98914.22
2023-03-21T14:24:03.072Z,98918.34
2023-03-21T14:26:37.378Z,98919.47
2023-03-21T14:29:22.846Z,98925.88
2023-03-21T14:31:54.120Z,98920.78
2023-03-21T14:34:24.878Z,98919.28
2023-03-21T14:36:58.057Z,98931.31
2023-03-21T14:39:32.899Z,98929.06
2023-03-21T14:42:07.853Z,98923.41
2023-03-21T14:44:56.770Z,98919.06
2023-03-21T14:47:28.864Z,98918.31
2023-03-21T14:49:59.154Z,98914.75
2023-03-21T14:52:36.754Z,98915.28
2023-03-21T14:55:16.568Z,98915.84
2023-03-21T14:57:45.345Z,98916.94
2023-03-21T15:00:23.895Z,98908.06
2023-03-21T15:02:53.787Z,98917.84
2023-03-21T15:05:28.176Z,98909.75
2023-03-21T15:08:02.496Z,98916.69
2023-03-21T15:10:33.015Z,98919.84
2023-03-21T15:13:13.474Z,98919.09
2023-03-21T15:15:43.206Z,98920.41
2023-03-21T15:18:18.439Z,98925.84
2023-03-21T15:20:50.066Z,98925.66
2023-03-21T15:23:39.802Z,98926.19
2023-03-21T15:26:08.705Z,98929.56
2023-03-21T15:28:37.645Z,98928.81
2023-03-21T15:31:20.360Z,98935.97
2023-03-21T15:33:56.216Z,98928.81
2023-03-21T15:36:29.934Z,98933.72
2023-03-21T15:38:58.416Z,98940.66
2023-03-21T15:41:32.984Z,98937.63
2023-03-21T15:44:03.573Z,98939.69
2023-03-21T15:46:45.947Z,98940.22
2023-03-21T15:49:17.330Z,98941.00
2023-03-21T15:52:07.566Z,98938.16
2023-03-21T15:55:00.292Z,98944.38
2023-03-21T15:57:33.860Z,98935.13
2023-03-21T16:00:11.976Z,98930.25
2023-03-21T16:02:43.064Z,98931.56
2023-03-21T16:05:26.082Z,98930.06
2023-03-21T16:07:54.464Z,98930.59
2023-03-21T16:10:33.145Z,98924.75
2023-03-21T16:13:01.897Z,98926.06
2023-03-21T16:15:30.284Z,98923.81
2023-03-21T16:18:01.268Z,98926.63
2023-03-21T16:20:35.179Z,98928.69
2023-03-21T16:23:04.297Z,98919.47
2023-03-21T16:25:34.417Z,98928.47
2023-03-21T16:28:02.901Z,98927.53
2023-03-21T16:30:31.335Z,98927.31
2023-03-21T16:32:59.727Z,98927.88
2023-03-21T16:35:28.747Z,98927.69
2023-03-21T16:37:57.124Z,98929.75
2023-03-21T16:40:36.731Z,98933.13
2023-03-21T16:43:05.687Z,98926.72
2023-03-21T16:45:34.446Z,98924.66
2023-03-21T16:48:03.145Z,98916.94
2023-03-21T16:50:38.008Z,98916.19
2023-03-21T16:53:06.917Z,98909.25
2023-03-21T16:55:36.428Z,98907.72
2023-03-21T16:58:05.022Z,98895.69
2023-03-21T17:00:33.695Z,98899.59
2023-03-21T17:03:09.992Z,98893.75
2023-03-21T17:05:38.389Z,98889.97
2023-03-21T17:08:07.443Z,98889.75
2023-03-21T17:10:35.978Z,98883.16
2023-03-21T17:13:04.368Z,98885.03
2023-03-21T17:15:32.714Z,98880.47
2023-03-21T17:18:01.184Z,98880.28
2023-03-21T17:20:35.775Z,98880.59
2023-03-21T17:23:04.728Z,98876.81
2023-03-21T17:25:33.176Z,98877.38
2023-03-21T17:28:01.604Z,98870.78
2023-03-21T17:30:34.327Z,98870.00
2023-03-21T17:33:03.104Z,98872.59
2023-03-21T17:35:31.599Z,98865.25
2023-03-21T17:38:00.062Z,98872.94
2023-03-21T17:40:31.654Z,98860.72
2023-03-21T17:43:02.511Z,98865.59
2023-03-21T17:45:30.967Z,98858.44
2023-03-21T17:47:59.395Z,98847.72
2023-03-21T17:50:35.020Z,98842.63
2023-03-21T17:53:03.511Z,98843.75
2023-03-21T17:55:32.536Z,98843.31
2023-03-21T17:58:01.185Z,98838.78
2023-03-21T18:00:31.929Z,98834.78
2023-03-21T18:03:00.523Z,98829.50
2023-03-21T18:05:29.121Z,98825.16
2023-03-21T18:08:13.184Z,98829.06
2023-03-21T18:10:42.998Z,98817.41
2023-03-21T18:13:11.883Z,98816.22
2023-03-21T18:15:44.646Z,98818.09
2023-03-21T18:18:14.644Z,98829.69
2023-03-21T18:20:51.748Z,98820.03
2023-03-21T18:23:20.952Z,98816.25
2023-03-21T18:25:49.735Z,98810.75
2023-03-21T18:28:21.137Z,98812.59
2023-03-21T18:33:45.974Z,98792.81
2023-03-21T18:36:24.115Z,98795.75
2023-03-21T18:38:52.964Z,98795.53
2023-03-21T18:41:23.634Z,98796.63
2023-03-21T18:44:02.662Z,98797.16
2023-03-21T18:46:35.756Z,98799.22
2023-03-21T18:49:33.709Z,98792.41
2023-03-21T18:51:53.548Z,98792.19
2023-03-21T18:54:22.319Z,98788.97
2023-03-21T18:59:40.866Z,98778.59
2023-03-21T19:02:09.578Z,98772.75
2023-03-21T19:04:38.314Z,98783.81
2023-03-21T19:07:08.539Z,98779.47
2023-03-21T19:10:01.609Z,98782.84
2023-03-21T19:12:28.139Z,98771.34
2023-03-21T19:14:56.857Z,98771.69
2023-03-21T19:20:14.953Z,98761.28
2023-03-21T19:22:43.867Z,98752.63
2023-03-21T19:25:14.598Z,98752.41
2023-03-21T19:27:43.480Z,98749.38
2023-03-21T19:30:15.841Z,98739.44
2023-03-21T19:32:45.705Z,98740.19
2023-03-21T19:35:15.175Z,98736.06
2023-03-21T19:37:43.631Z,98731.97
2023-03-21T19:40:12.274Z,98731.19
2023-03-21T19:42:41.516Z,98732.72
2023-03-21T19:45:10.739Z,98726.34
2023-03-21T19:47:39.360Z,98726.88
2023-03-21T19:52:57.795Z,98711.50
2023-03-21T19:55:27.230Z,98712.06
2023-03-21T19:57:55.797Z,98710.53
2023-03-21T20:00:24.936Z,98701.88
2023-03-21T20:02:53.436Z,98701.13
2023-03-21T20:05:22.963Z,98709.56
2023-03-21T20:07:51.377Z,98708.06
2023-03-21T20:10:19.848Z,98709.38
2023-03-21T20:12:48.740Z,98717.06
2023-03-21T20:15:19.983Z,98712.19
2023-03-21T20:17:51.216Z,98705.78
2023-03-21T20:20:20.449Z,98708.59
2023-03-21T20:23:06.288Z,98722.69
2023-03-21T20:25:35.678Z,98725.50
2023-03-21T20:28:15.717Z,98725.50
2023-03-21T20:30:50.811Z,98728.31
2023-03-21T20:33:19.204Z,98724.72
2023-03-21T20:38:36.942Z,98729.06
2023-03-21T20:41:07.339Z,98731.13
2023-03-21T20:44:28.208Z,98734.69
2023-03-21T20:46:25.449Z,98739.56
2023-03-21T20:48:54.042Z,98736.00
2023-03-21T20:54:12.001Z,98753.41
2023-03-21T20:56:40.365Z,98739.91
2023-03-21T20:59:18.791Z,98749.63
2023-03-21T21:01:53.443Z,98746.81
2023-03-21T21:04:23.073Z,98746.06
2023-03-21T21:06:55.892Z,98738.91
2023-03-21T21:09:24.651Z,98745.28
2023-03-21T21:12:10.229Z,98748.88
2023-03-21T21:14:39.853Z,98748.09
2023-03-21T21:17:26.721Z,98753.72
2023-03-21T21:19:57.285Z,98755.03
2023-03-21T21:22:25.921Z,98755.78
2023-03-21T21:24:54.252Z,98761.66
2023-03-21T21:27:23.074Z,98757.09
2023-03-21T21:29:51.418Z,98757.31
2023-03-21T21:32:20.520Z,98755.25
2023-03-21T21:34:48.987Z,98760.13
2023-03-21T21:37:17.406Z,98760.88
2023-03-21T21:39:46.628Z,98763.72
2023-03-21T21:42:15.088Z,98767.28
2023-03-21T21:44:45.886Z,98764.47
2023-03-21T21:47:15.175Z,98766.53
2023-03-21T21:49:43.566Z,98768.03
2023-03-21T21:52:14.408Z,98768.03
2023-03-21T21:54:46.520Z,98773.66
2023-03-21T21:57:15.202Z,98772.16
2023-03-21T21:59:43.558Z,98776.22
2023-03-21T22:02:17.786Z,98781.09
2023-03-21T22:04:46.109Z,98778.84
2023-03-21T22:07:15.144Z,98785.53
2023-03-21T22:09:45.731Z,98790.41
2023-03-21T22:12:14.087Z,98796.59
2023-03-21T22:14:42.417Z,98802.00
2023-03-21T22:17:10.872Z,98803.31
2023-03-21T22:19:40.373Z,98808.72
2023-03-21T22:22:08.940Z,98812.06
2023-03-21T22:24:38.317Z,98823.09
2023-03-21T22:27:06.944Z,98816.50
2023-03-21T22:29:35.344Z,98824.72
2023-03-21T22:32:03.931Z,98828.09
2023-03-21T22:34:32.434Z,98833.50
2023-03-21T22:37:00.973Z,98837.38
2023-03-21T22:39:29.764Z,98836.16
2023-03-21T22:42:01.845Z,98842.88
2023-03-21T22:44:35.905Z,98843.19
2023-03-21T22:47:10.513Z,98846.31
2023-03-21T22:49:40.501Z,98850.19
2023-03-21T22:52:10.935Z,98861.22
2023-03-21T22:54:39.554Z,98866.63
2023-03-21T22:57:09.558Z,98868.47
2023-03-21T22:59:37.909Z,98878.94
2023-03-21T23:02:06.325Z,98883.06
2023-03-21T23:04:34.821Z,98875.91
2023-03-21T23:07:04.129Z,98889.22
2023-03-21T23:09:32.630Z,98889.72
2023-03-21T23:12:01.273Z,98887.44
2023-03-21T23:14:30.557Z,98887.22
2023-03-21T23:17:01.124Z,98882.16
2023-03-21T23:19:30.078Z,98889.06
2023-03-21T23:21:58.705Z,98898.78
2023-03-21T23:24:27.588Z,98902.91
2023-03-21T23:26:56.062Z,98908.28
2023-03-21T23:29:24.470Z,98903.97
2023-03-21T23:31:52.849Z,98916.50
2023-03-21T23:34:21.421Z,98914.22
2023-03-21T23:36:49.868Z,98921.38
2023-03-21T23:39:19.485Z,98921.38
2023-03-21T23:41:48.085Z,98930.03
2023-03-21T23:44:17.137Z,98936.41
2023-03-21T23:46:45.560Z,98924.63
2023-03-21T23:49:15.982Z,98931.97
2023-03-21T23:51:44.453Z,98933.50
2023-03-21T23:54:12.861Z,98934.47
2023-03-21T23:56:41.582Z,98941.09
2023-03-21T23:59:10.011Z,98949.75
